Time;durP1;ratioP1;P1;durP2;ratioP2;P2;SDS_P1;SDS_P2;PMS_P1;PMS_P2;Temp;Humidity;BMP_temperature;BMP_pressure;BME280_temperature;BME280_humidity;BME280_pressure;Samples;Min_cycle;Max_cycle;Signal;HPM_P1;HPM_P2
2022/10/08 00:03:28;;;;;;;;;;;12.00;99.90;;;10.09;97.32;100762.31;10534881;28;19958;-84
2022/10/08 00:08:33;;;;;;;;;;;12.00;99.90;;;10.01;97.08;100755.06;10514242;28;19934;-85
2022/10/08 00:13:41;;;;;;;;;;;11.90;99.90;;;9.95;97.14;100750.38;10531287;28;19929;-84
2022/10/08 00:18:46;;;;;;;;;;;11.80;99.90;;;9.88;97.12;100744.81;10534860;28;20037;-84
2022/10/08 00:23:49;;;;;;;;;;;11.80;99.90;;;9.82;97.20;100736.63;10538571;28;19928;-85
2022/10/08 00:28:54;;;;;;;;;;;11.70;99.90;;;9.75;97.18;100738.22;10532512;28;20319;-84
2022/10/08 00:33:58;;;;;;;;;;;11.60;99.90;;;9.67;96.87;100733.66;10543603;28;19935;-84
2022/10/08 00:39:07;;;;;;;;;;;11.50;99.90;;;9.61;97.68;100726.28;10544329;28;20273;-85
2022/10/08 00:44:53;;;;;;;;;;;11.50;99.90;;;9.58;97.53;100726.56;10537825;28;20308;-84
2022/10/08 00:50:00;;;;;;;;;;;11.50;99.90;;;9.55;97.74;100713.63;10532563;28;19928;-84
2022/10/08 00:55:05;;;;;;;;;;;11.40;99.90;;;9.53;97.70;100712.91;10540643;28;19929;-84
2022/10/08 01:00:11;;;;;;;;;;;11.40;99.90;;;9.51;97.97;100721.03;10541995;28;19959;-84
2022/10/08 01:05:18;;;;;;;;;;;11.40;99.90;;;9.48;98.08;100710.72;10534547;28;19932;-84
2022/10/08 01:10:42;;;;;;;;;;;11.40;99.90;;;9.48;98.33;100709.91;10528586;28;19928;-84
2022/10/08 01:15:45;;;;;;;;;;;11.30;99.90;;;9.43;98.26;100702.38;10541797;28;20023;-84
2022/10/08 01:21:14;;;;;;;;;;;11.30;99.90;;;9.37;98.16;100701.16;10543423;28;19929;-84
2022/10/08 01:26:49;;;;;;;;;;;11.30;99.90;;;9.33;98.37;100699.75;10542981;28;19935;-84
2022/10/08 01:31:54;;;;;;;;;;;11.20;99.90;;;9.29;98.34;100694.88;10520619;28;20384;-84
2022/10/08 01:37:00;;;;;;;;;;;11.20;99.90;;;9.25;98.33;100694.38;10544764;28;20023;-84
2022/10/08 01:42:06;;;;;;;;;;;11.10;99.90;;;9.23;98.62;100691.00;10540896;28;19951;-84
2022/10/08 01:47:12;;;;;;;;;;;11.10;99.90;;;9.20;98.63;100680.72;10522738;28;20395;-84
2022/10/08 01:52:27;;;;;;;;;;;11.10;99.90;;;9.20;98.86;100677.22;10536294;28;19933;-84
2022/10/08 01:57:31;;;;;;;;;;;11.10;99.90;;;9.19;98.73;100672.91;10527378;28;19997;-84
2022/10/08 02:02:34;;;;;;;;;;;11.10;99.90;;;9.15;98.57;100663.56;10540095;28;19978;-84
2022/10/08 02:07:41;;;;;;;;;;;11.10;99.90;;;9.08;98.65;100655.38;10526954;28;19951;-84
2022/10/08 02:12:44;;;;;;;;;;;11.00;99.90;;;9.03;98.85;100662.94;10525615;28;20414;-84
2022/10/08 02:18:34;;;;;;;;;;;11.00;99.90;;;9.00;98.96;100666.72;10540527;28;19932;-84
2022/10/08 02:23:40;;;;;;;;;;;10.90;99.90;;;8.94;98.76;100664.66;10499586;28;19929;-84
2022/10/08 02:28:53;;;;;;;;;;;10.90;99.90;;;8.90;98.66;100665.91;10525587;28;19928;-84
2022/10/08 02:34:31;;;;;;;;;;;10.80;99.90;;;8.84;98.87;100663.84;10540988;28;19979;-84
2022/10/08 02:39:38;;;;;;;;;;;10.80;99.90;;;8.81;99.00;100662.31;10491669;28;19936;-84
2022/10/08 02:44:47;;;;;;;;;;;10.70;99.90;;;8.79;99.18;100658.97;10512887;28;19978;-84
2022/10/08 02:49:56;;;;;;;;;;;10.70;99.90;;;8.77;98.97;100663.59;10535062;28;19932;-84
2022/10/08 02:55:00;;;;;;;;;;;10.70;99.90;;;8.72;98.92;100663.19;10524802;28;20327;-84
2022/10/08 03:00:03;;;;;;;;;;;10.70;99.90;;;8.70;99.30;100656.38;10535842;28;20374;-84
2022/10/08 03:05:14;;;;;;;;;;;10.70;99.90;;;8.65;98.90;100661.28;10517267;28;20388;-84
2022/10/08 03:10:18;;;;;;;;;;;10.60;99.90;;;8.62;99.21;100653.59;10533820;28;19929;-84
2022/10/08 03:15:21;;;;;;;;;;;10.60;99.90;;;8.62;99.21;100648.28;10536917;28;20015;-84
2022/10/08 03:20:25;;;;;;;;;;;10.60;99.90;;;8.61;99.43;100652.75;10539084;28;20344;-84
2022/10/08 03:25:28;;;;;;;;;;;10.60;99.90;;;8.60;99.61;100653.75;10516155;28;19928;-84
2022/10/08 03:30:30;;;;;;;;;;;10.60;99.90;;;8.61;99.54;100652.75;10534830;28;19928;-83
2022/10/08 03:35:34;;;;;;;;;;;10.60;99.90;;;8.60;99.68;100653.75;10527149;28;19928;-84
2022/10/08 03:40:36;;;;;;;;;;;10.60;99.90;;;8.59;99.78;100654.72;10510040;28;20010;-84
2022/10/08 03:45:50;;;;;;;;;;;10.60;99.90;;;8.53;99.69;100650.00;10538501;28;19928;-84
2022/10/08 03:50:54;;;;;;;;;;;10.50;99.90;;;8.48;99.48;100657.53;10522861;28;20489;-84
2022/10/08 03:56:08;;;;;;;;;;;10.40;99.90;;;8.37;99.40;100647.94;10534201;28;19928;-84
2022/10/08 04:01:15;;;;;;;;;;;10.40;99.90;;;8.30;99.46;100647.66;10504274;28;19968;-84
2022/10/08 04:06:18;;;;;;;;;;;10.20;99.90;;;8.25;99.80;100641.09;10519835;28;19975;-84
2022/10/08 04:11:21;;;;;;;;;;;10.20;99.90;;;8.23;99.60;100638.63;10531270;28;19936;-84
2022/10/08 04:16:24;;;;;;;;;;;10.20;99.90;;;8.22;99.67;100642.25;10542144;28;19951;-84
2022/10/08 04:21:28;;;;;;;;;;;10.20;99.90;;;8.17;99.58;100641.81;10539835;28;19932;-84
2022/10/08 04:26:31;;;;;;;;;;;10.10;99.90;;;8.10;99.56;100640.72;10539643;28;19928;-84
2022/10/08 04:31:33;;;;;;;;;;;10.10;99.90;;;8.03;99.48;100639.59;10525780;28;20027;-84
2022/10/08 04:36:37;;;;;;;;;;;10.00;99.90;;;8.03;99.57;100652.81;10546883;28;19935;-84
2022/10/08 04:41:40;;;;;;;;;;;10.00;99.90;;;8.00;99.71;100648.66;10542992;28;19932;-84
2022/10/08 04:46:43;;;;;;;;;;;10.00;99.90;;;7.97;99.89;100641.00;10526320;28;19978;-84
2022/10/08 04:51:46;;;;;;;;;;;9.90;99.90;;;7.97;99.77;100648.09;10528118;28;20031;-84
2022/10/08 04:56:48;;;;;;;;;;;9.90;99.90;;;7.91;99.92;100643.34;10538746;28;19994;-86
2022/10/08 05:01:55;;;;;;;;;;;9.90;99.90;;;7.92;99.74;100642.41;10537412;28;19928;-86
2022/10/08 05:06:58;;;;;;;;;;;9.90;99.90;;;7.89;99.82;100646.16;10537750;28;20031;-86
2022/10/08 05:12:01;;;;;;;;;;;9.80;99.90;;;7.87;99.81;100647.28;10534794;28;20412;-86
2022/10/08 05:17:03;;;;;;;;;;;9.80;99.90;;;7.88;100.00;100643.66;10535717;28;20292;-86
2022/10/08 05:22:06;;;;;;;;;;;9.80;99.90;;;7.93;100.00;100652.84;10517844;28;19935;-86
2022/10/08 05:27:08;;;;;;;;;;;9.90;99.90;;;8.02;100.00;100665.22;10514026;28;19929;-86
2022/10/08 05:32:11;;;;;;;;;;;9.90;99.90;;;8.07;100.00;100654.22;10520711;28;19975;-86
2022/10/08 05:37:14;;;;;;;;;;;10.00;99.90;;;8.16;100.00;100658.69;10523387;28;19928;-86
2022/10/08 05:42:16;;;;;;;;;;;10.10;99.90;;;8.23;100.00;100669.56;10520984;28;19932;-86
2022/10/08 05:47:20;;;;;;;;;;;10.20;99.90;;;8.32;100.00;100674.81;10514365;28;19928;-86
2022/10/08 05:52:22;;;;;;;;;;;10.20;99.90;;;8.41;100.00;100690.88;10513286;28;20014;-86
2022/10/08 05:57:25;;;;;;;;;;;10.30;99.90;;;8.48;100.00;100684.03;10545227;28;19928;-85
2022/10/08 06:02:27;;;;;;;;;;;10.40;99.90;;;8.55;100.00;100698.38;10534917;28;20342;-86
2022/10/08 06:07:30;;;;;;;;;;;10.40;99.90;;;8.66;100.00;100692.91;10539109;28;20288;-85
2022/10/08 06:12:33;;;;;;;;;;;10.60;99.90;;;8.80;100.00;100692.44;10523382;28;19929;-85
2022/10/08 06:17:35;;;;;;;;;;;10.70;99.90;;;8.96;100.00;100693.66;10521455;28;19928;-86
2022/10/08 06:22:38;;;;;;;;;;;10.90;99.90;;;9.17;100.00;100694.25;10521686;28;19929;-85
2022/10/08 06:27:40;;;;;;;;;;;11.10;99.90;;;9.39;100.00;100691.22;10507595;28;19928;-86
2022/10/08 06:32:43;;;;;;;;;;;11.30;99.90;;;9.68;100.00;100697.34;10519862;28;19928;-86
2022/10/08 06:37:47;;;;;;;;;;;11.60;99.90;;;9.96;100.00;100703.44;10525640;28;19950;-86
2022/10/08 06:42:50;;;;;;;;;;;11.80;99.90;;;10.22;100.00;100706.16;10520402;28;19929;-86
2022/10/08 06:47:53;;;;;;;;;;;12.10;99.90;;;10.48;100.00;100709.69;10532856;28;20025;-86
2022/10/08 06:52:56;;;;;;;;;;;12.40;99.90;;;10.71;100.00;100702.06;10523464;28;20347;-86
2022/10/08 06:57:58;;;;;;;;;;;12.60;99.90;;;10.94;100.00;100705.03;10529868;28;19967;-86
2022/10/08 07:03:01;;;;;;;;;;;12.80;99.90;;;11.18;100.00;100706.97;10532003;28;19928;-86
2022/10/08 07:08:04;;;;;;;;;;;13.10;99.90;;;11.42;100.00;100701.75;10528408;28;20026;-86
2022/10/08 07:13:07;;;;;;;;;;;13.40;99.90;;;11.67;100.00;100700.00;10514356;28;20323;-86
2022/10/08 07:18:11;;;;;;;;;;;13.60;99.90;;;11.90;100.00;100692.25;10532148;28;19928;-86
2022/10/08 07:23:14;;;;;;;;;;;13.90;99.90;;;12.13;100.00;100688.94;10537323;28;20379;-87
2022/10/08 07:28:16;;;;;;;;;;;14.10;99.90;;;12.38;100.00;100698.59;10530531;28;19928;-87
2022/10/08 07:33:19;;;;;;;;;;;14.30;99.90;;;12.55;100.00;100696.75;10532016;28;19928;-86
2022/10/08 07:38:22;;;;;;;;;;;14.50;99.90;;;12.78;99.27;100697.72;10534830;28;19951;-87
2022/10/08 07:43:25;;;;;;;;;;;14.70;99.90;;;13.02;98.39;100690.66;10521497;28;19974;-87
2022/10/08 07:48:29;;;;;;;;;;;14.90;99.90;;;13.28;97.96;100693.09;10542946;28;19928;-87
2022/10/08 07:53:36;;;;;;;;;;;15.10;99.90;;;13.42;96.22;100684.34;10522799;28;19928;-86
2022/10/08 07:58:39;;;;;;;;;;;15.30;99.90;;;13.60;95.55;100684.91;10544181;28;19928;-86
2022/10/08 08:03:42;;;;;;;;;;;15.50;99.90;;;13.82;94.67;100687.78;10520501;28;19938;-87
2022/10/08 08:08:45;;;;;;;;;;;15.70;99.90;;;13.89;92.30;100681.56;10535889;28;19974;-87
2022/10/08 08:13:49;;;;;;;;;;;15.90;99.90;;;14.04;91.28;100680.81;10540057;28;20027;-87
2022/10/08 08:18:54;;;;;;;;;;;16.00;99.90;;;14.14;89.51;100679.53;10534739;28;19936;-86
2022/10/08 08:24:01;;;;;;;;;;;16.20;99.90;;;14.30;88.94;100672.41;10537267;28;19936;-86
2022/10/08 08:29:06;;;;;;;;;;;16.30;99.90;;;14.50;88.23;100670.06;10533266;28;20407;-86
2022/10/08 08:34:12;;;;;;;;;;;16.50;99.90;;;14.60;86.88;100667.97;10530470;28;19928;-87
2022/10/08 08:39:21;;;;;;;;;;;16.60;99.90;;;14.73;85.53;100671.66;10539587;28;19932;-87
2022/10/08 08:44:45;;;;;;;;;;;16.70;99.90;;;14.92;84.63;100666.78;10512100;28;19929;-86
2022/10/08 08:50:17;;;;;;;;;;;16.90;99.90;;;15.05;83.93;100653.56;10533572;28;20465;-87
2022/10/08 08:55:28;;;;;;;;;;;17.00;99.90;;;15.19;83.13;100655.44;10511590;28;19928;-86
2022/10/08 09:00:35;;;;;;;;;;;17.20;99.90;;;15.35;81.72;100656.22;10543673;28;19928;-86
2022/10/08 09:05:41;;;;;;;;;;;17.40;99.90;;;15.56;81.31;100653.59;10517576;28;19928;-86
2022/10/08 09:10:46;;;;;;;;;;;17.50;99.90;;;15.70;79.93;100655.41;10538074;28;19970;-86
2022/10/08 09:15:50;;;;;;;;;;;17.70;99.90;;;15.88;79.39;100659.50;10543686;28;19929;-87
2022/10/08 09:20:52;;;;;;;;;;;17.90;99.90;;;16.05;77.44;100650.19;10531116;28;19934;-85
2022/10/08 09:26:02;;;;;;;;;;;18.00;99.90;;;16.19;77.00;100651.97;10537429;28;19929;-85
2022/10/08 09:31:23;;;;;;;;;;;18.20;99.90;;;16.35;75.97;100652.72;10526469;28;19932;-85
2022/10/08 09:36:35;;;;;;;;;;;18.40;99.90;;;16.43;75.65;100644.50;10521848;28;20302;-85
2022/10/08 09:41:38;;;;;;;;;;;18.50;99.90;;;16.68;75.76;100637.69;10519464;28;20307;-87
2022/10/08 09:46:40;;;;;;;;;;;18.70;99.90;;;16.78;74.70;100629.28;10541697;28;19928;-85
2022/10/08 09:51:44;;;;;;;;;;;18.80;99.90;;;16.93;73.89;100623.81;10526487;28;19928;-85
2022/10/08 09:56:58;;;;;;;;;;;19.00;99.90;;;17.12;73.51;100615.84;10530338;28;19928;-86
2022/10/08 10:02:30;;;;;;;;;;;19.20;99.90;;;17.44;73.02;100621.53;10506951;28;19928;-85
2022/10/08 10:07:44;;;;;;;;;;;19.40;99.90;;;17.68;70.81;100612.06;10516461;28;20013;-85
2022/10/08 10:12:51;;;;;;;;;;;19.70;99.60;;;17.79;69.63;100605.31;10528422;28;19932;-85
2022/10/08 10:18:10;;;;;;;;;;;19.80;99.90;;;17.86;68.12;100600.75;10538208;28;20025;-86
2022/10/08 10:23:15;;;;;;;;;;;19.90;99.90;;;17.97;68.00;100591.25;10500959;28;20317;-86
2022/10/08 10:28:49;;;;;;;;;;;20.00;99.50;;;18.25;67.09;100582.97;10534403;28;19971;-86
2022/10/08 10:33:56;;;;;;;;;;;20.30;99.00;;;18.36;64.57;100577.78;10512019;28;19929;-87
2022/10/08 10:39:17;;;;;;;;;;;20.50;98.30;;;18.41;63.85;100561.84;10491408;28;19928;-86
2022/10/08 10:44:25;;;;;;;;;;;20.60;97.70;;;18.48;63.50;100547.53;10516953;28;20023;-86
2022/10/08 10:49:40;;;;;;;;;;;20.60;96.80;;;18.53;62.93;100545.03;10503789;28;19932;-86
2022/10/08 10:55:02;;;;;;;;;;;20.70;96.40;;;18.68;63.21;100532.19;10528946;28;20343;-86
2022/10/08 11:00:19;;;;;;;;;;;20.80;95.90;;;18.98;62.49;100535.16;10520388;28;20441;-86
2022/10/08 11:05:25;;;;;;;;;;;21.00;96.10;;;19.12;61.40;100523.25;10498484;28;20388;-87
2022/10/08 11:10:44;;;;;;;;;;;21.20;95.30;;;19.17;60.10;100511.84;10530679;28;19929;-87
2022/10/08 11:16:09;;;;;;;;;;;21.40;94.30;;;19.16;58.64;100500.25;10535364;28;19928;-86
2022/10/08 11:21:20;;;;;;;;;;;21.40;93.20;;;19.30;59.56;100498.28;10529155;28;20248;-86
2022/10/08 11:26:26;;;;;;;;;;;21.50;92.90;;;19.64;58.36;100493.50;10543373;28;19978;-86
2022/10/08 11:31:39;;;;;;;;;;;21.70;92.80;;;19.77;56.73;100485.31;10534976;28;19929;-86
2022/10/08 11:36:50;;;;;;;;;;;21.90;91.50;;;19.83;56.86;100481.72;10522271;28;19928;-87
2022/10/08 11:42:00;;;;;;;;;;;21.90;91.60;;;19.84;57.17;100475.28;10546030;28;19936;-85
2022/10/08 11:47:35;;;;;;;;;;;22.00;91.30;;;19.88;56.57;100468.41;10541523;28;19933;-85
2022/10/08 11:52:38;;;;;;;;;;;22.00;91.00;;;19.92;56.25;100469.63;10518853;28;19975;-85
2022/10/08 11:57:41;;;;;;;;;;;22.10;90.40;;;19.94;55.84;100456.72;10552739;28;20019;-86
2022/10/08 12:03:26;;;;;;;;;;;22.20;88.30;;;20.07;55.17;100457.63;10534280;28;19936;-86
2022/10/08 12:08:56;;;;;;;;;;;22.30;88.50;;;19.91;54.66;100445.53;10526876;28;19990;-86
2022/10/08 12:14:11;;;;;;;;;;;22.10;87.60;;;19.84;56.29;100440.22;10535507;28;20351;-85
2022/10/08 12:19:33;;;;;;;;;;;21.90;87.70;;;19.82;56.74;100428.03;10546620;28;19928;-86
2022/10/08 12:24:36;;;;;;;;;;;21.80;87.10;;;19.70;56.20;100419.84;10548870;28;19982;-86
2022/10/08 12:29:56;;;;;;;;;;;21.70;87.30;;;19.65;56.55;100415.09;10545135;28;19928;-86
2022/10/08 12:35:00;;;;;;;;;;;21.70;87.30;;;19.49;55.40;100416.47;10509672;28;20015;-86
2022/10/08 12:40:14;;;;;;;;;;;21.50;85.60;;;19.45;54.95;100406.34;10537239;28;19928;-86
2022/10/08 12:45:25;;;;;;;;;;;21.50;85.90;;;19.43;55.28;100405.72;10541008;28;19929;-86
2022/10/08 12:50:27;;;;;;;;;;;21.40;86.00;;;19.42;56.38;100410.31;10526232;28;19935;-86
2022/10/08 12:55:35;;;;;;;;;;;21.40;86.50;;;19.32;55.75;100401.09;10539534;28;20353;-86
2022/10/08 13:00:41;;;;;;;;;;;21.30;85.90;;;19.30;56.05;100401.28;10543575;28;19975;-86
2022/10/08 13:05:44;;;;;;;;;;;21.30;86.00;;;19.26;56.36;100397.41;10536203;28;20052;-86
2022/10/08 13:10:47;;;;;;;;;;;21.30;86.10;;;19.28;56.04;100398.00;10548504;28;19916;-85
2022/10/08 13:15:58;;;;;;;;;;;21.30;85.90;;;19.20;55.48;100398.28;10543962;28;20288;-86
2022/10/08 13:21:02;;;;;;;;;;;21.30;85.10;;;19.20;57.02;100392.91;10537549;28;19935;-85
2022/10/08 13:26:43;;;;;;;;;;;21.20;85.80;;;19.20;56.74;100396.41;10513718;28;19936;-85
2022/10/08 13:31:56;;;;;;;;;;;21.20;85.80;;;19.14;56.51;100391.91;10541735;28;20362;-86
2022/10/08 13:37:03;;;;;;;;;;;21.20;85.60;;;19.14;57.61;100391.91;10521664;28;20443;-86
2022/10/08 13:42:32;;;;;;;;;;;21.20;86.20;;;19.14;57.49;100380.31;10517146;28;20661;-85
2022/10/08 13:47:35;;;;;;;;;;;21.20;86.10;;;19.14;56.88;100380.31;10535098;28;19954;-85
2022/10/08 13:52:42;;;;;;;;;;;21.10;85.60;;;19.08;56.43;100375.78;10522587;28;19963;-85
2022/10/08 13:57:45;;;;;;;;;;;21.20;85.30;;;19.10;57.20;100374.53;10525001;28;19928;-86
2022/10/08 14:02:50;;;;;;;;;;;21.20;85.90;;;19.12;57.72;100366.22;10531054;28;19928;-85
2022/10/08 14:08:01;;;;;;;;;;;21.10;86.20;;;19.12;57.76;100361.66;10534642;28;19951;-86
2022/10/08 14:13:03;;;;;;;;;;;21.20;86.30;;;19.15;57.34;100363.09;10525807;28;20451;-86
2022/10/08 14:18:07;;;;;;;;;;;21.20;85.10;;;19.19;57.39;100350.81;10523396;28;19928;-86
2022/10/08 14:23:12;;;;;;;;;;;21.30;86.10;;;19.22;57.08;100351.22;10538622;28;19928;-85
2022/10/08 14:28:14;;;;;;;;;;;21.20;85.70;;;19.27;56.77;100347.03;10535354;28;20359;-85
2022/10/08 14:33:17;;;;;;;;;;;21.30;85.60;;;19.21;57.18;100338.78;10544146;28;19928;-85
2022/10/08 14:38:20;;;;;;;;;;;21.20;85.50;;;19.17;57.05;100347.53;10532450;28;20316;-85
2022/10/08 14:43:22;;;;;;;;;;;21.20;85.50;;;19.09;57.75;100345.94;10523890;28;19994;-85
2022/10/08 14:48:29;;;;;;;;;;;21.10;85.80;;;19.05;59.97;100350.09;10522758;28;19998;-85
2022/10/08 14:53:31;;;;;;;;;;;21.10;87.30;;;18.97;61.67;100348.53;10539048;28;19929;-86
2022/10/08 14:58:34;;;;;;;;;;;21.00;88.50;;;18.88;62.01;100354.38;10518370;28;19935;-86
2022/10/08 15:03:37;;;;;;;;;;;20.90;88.70;;;18.79;62.24;100350.31;10535177;28;19936;-86
2022/10/08 15:08:40;;;;;;;;;;;20.80;89.60;;;18.69;63.75;100346.22;10537821;28;19936;-85
2022/10/08 15:13:42;;;;;;;;;;;20.70;90.30;;;18.60;65.15;100346.69;10536965;28;19935;-86
2022/10/08 15:18:45;;;;;;;;;;;20.60;90.90;;;18.48;66.13;100340.34;10515893;28;19928;-86
2022/10/08 15:23:48;;;;;;;;;;;20.40;91.10;;;18.38;66.86;100340.81;10540277;28;19935;-86
2022/10/08 15:28:52;;;;;;;;;;;20.30;92.20;;;18.27;68.28;100345.00;10523589;28;19934;-86
2022/10/08 15:33:58;;;;;;;;;;;20.10;93.00;;;18.13;68.97;100329.97;10515821;28;19928;-87
2022/10/08 15:39:07;;;;;;;;;;;20.00;93.30;;;17.97;69.27;100342.03;10509296;28;20387;-87
2022/10/08 15:44:21;;;;;;;;;;;19.90;93.30;;;17.78;70.26;100349.13;10538263;28;20023;-87
2022/10/08 15:49:31;;;;;;;;;;;19.70;93.40;;;17.65;70.47;100352.63;10532494;28;20315;-87
2022/10/08 15:54:35;;;;;;;;;;;19.50;93.80;;;17.48;71.03;100353.28;10518040;28;19974;-87
2022/10/08 15:59:38;;;;;;;;;;;19.30;94.50;;;17.27;71.30;100362.38;10532496;28;19994;-87
2022/10/08 16:04:41;;;;;;;;;;;19.10;94.50;;;17.02;71.84;100376.44;10532407;28;20015;-88
2022/10/08 16:09:43;;;;;;;;;;;18.90;94.60;;;16.69;71.21;100375.56;10506645;28;19928;-88
2022/10/08 16:14:46;;;;;;;;;;;18.60;94.10;;;16.44;71.82;100369.91;10528857;28;19967;-88
2022/10/08 16:19:49;;;;;;;;;;;18.40;94.30;;;16.22;72.54;100371.91;10529742;28;20351;-88
2022/10/08 16:24:52;;;;;;;;;;;18.20;94.40;;;15.98;72.58;100381.28;10547074;28;19935;-88
2022/10/08 16:29:55;;;;;;;;;;;17.90;94.60;;;15.75;73.35;100382.38;10547974;28;19928;-88
2022/10/08 16:34:57;;;;;;;;;;;17.70;94.80;;;15.54;73.71;100387.78;10529258;28;19935;-88
2022/10/08 16:40:02;;;;;;;;;;;17.50;94.90;;;15.35;74.44;100399.97;10532103;28;19932;-88
2022/10/08 16:45:05;;;;;;;;;;;17.20;95.60;;;15.16;74.80;100396.13;10527793;28;19928;-88
2022/10/08 16:50:08;;;;;;;;;;;17.10;96.40;;;15.00;75.90;100401.78;10529751;28;19928;-88
2022/10/08 16:55:11;;;;;;;;;;;16.90;96.70;;;14.88;76.19;100405.97;10547627;28;20409;-88
2022/10/08 17:00:14;;;;;;;;;;;16.70;96.60;;;14.73;76.62;100408.69;10528813;28;20031;-88
2022/10/08 17:05:16;;;;;;;;;;;16.60;96.40;;;14.61;76.87;100408.34;10513377;28;19928;-88
2022/10/08 17:10:19;;;;;;;;;;;16.50;96.80;;;14.45;76.83;100416.56;10496375;28;19935;-88
2022/10/08 17:15:22;;;;;;;;;;;16.30;97.20;;;14.31;77.52;100409.41;10507157;28;20538;-88
2022/10/08 17:20:26;;;;;;;;;;;16.20;97.60;;;14.14;78.20;100414.94;10527789;28;20415;-88
2022/10/08 17:25:29;;;;;;;;;;;16.00;98.80;;;14.06;78.84;100419.56;10516511;28;19978;-88
2022/10/08 17:30:31;;;;;;;;;;;15.90;98.60;;;14.03;79.33;100431.44;10539360;28;19928;-88
2022/10/08 17:35:34;;;;;;;;;;;15.90;99.40;;;13.94;79.48;100421.88;10531060;28;20422;-88
2022/10/08 17:40:37;;;;;;;;;;;15.80;99.90;;;13.87;79.81;100420.97;10517060;28;19929;-88
2022/10/08 17:45:39;;;;;;;;;;;15.70;99.90;;;13.82;80.03;100439.38;10534587;28;19978;-88
2022/10/08 17:50:43;;;;;;;;;;;15.60;99.90;;;13.81;80.07;100451.09;10525961;28;20392;-89
2022/10/08 17:55:45;;;;;;;;;;;15.60;99.90;;;13.81;80.32;100448.41;10540024;28;19935;-88
2022/10/08 18:00:48;;;;;;;;;;;15.60;99.90;;;13.81;79.89;100459.09;10556170;28;19939;-88
2022/10/08 18:05:56;;;;;;;;;;;15.60;99.90;;;13.76;79.98;100454.28;10545362;28;20455;-88
2022/10/08 18:11:04;;;;;;;;;;;15.60;99.90;;;13.68;80.24;100464.25;10538012;28;19928;-87
2022/10/08 18:16:10;;;;;;;;;;;15.50;99.90;;;13.54;80.51;100461.34;10543374;28;19935;-87
2022/10/08 18:21:15;;;;;;;;;;;15.40;99.90;;;13.49;81.00;100466.38;10535477;28;19928;-87
2022/10/08 18:26:23;;;;;;;;;;;15.30;99.90;;;13.46;81.40;100457.91;10535125;28;19968;-88
2022/10/08 18:31:28;;;;;;;;;;;15.30;99.90;;;13.48;81.05;100463.91;10528225;28;19951;-87
2022/10/08 18:36:33;;;;;;;;;;;15.30;99.90;;;13.50;81.37;100462.72;10515962;28;19929;-87
2022/10/08 18:41:40;;;;;;;;;;;15.30;99.90;;;13.42;81.45;100460.09;10499871;28;19929;-87
2022/10/08 18:46:43;;;;;;;;;;;15.30;99.90;;;13.30;81.69;100467.72;10513932;28;19928;-87
2022/10/08 18:51:48;;;;;;;;;;;15.30;99.90;;;13.23;82.30;100465.94;10538643;28;19934;-87
2022/10/08 18:56:51;;;;;;;;;;;15.10;99.90;;;13.07;82.51;100482.84;10538791;28;19936;-87
2022/10/08 19:01:53;;;;;;;;;;;15.00;99.90;;;12.92;83.09;100485.47;10539468;28;19928;-87
2022/10/08 19:07:01;;;;;;;;;;;14.90;99.90;;;12.82;83.34;100495.50;10532236;28;19929;-87
2022/10/08 19:12:03;;;;;;;;;;;14.70;99.90;;;12.69;84.13;100498.75;10541962;28;19928;-87
2022/10/08 19:17:05;;;;;;;;;;;14.60;99.90;;;12.59;84.48;100500.78;10532282;28;19929;-87
2022/10/08 19:22:13;;;;;;;;;;;14.50;99.90;;;12.53;84.91;100499.66;10535551;28;19928;-87
2022/10/08 19:27:21;;;;;;;;;;;14.50;99.90;;;12.46;85.14;100495.19;10540365;28;19928;-87
2022/10/08 19:32:23;;;;;;;;;;;14.40;99.90;;;12.37;85.24;100507.72;10518417;28;19928;-87
2022/10/08 19:37:25;;;;;;;;;;;14.30;99.90;;;12.22;85.59;100504.09;10516675;28;19929;-87
2022/10/08 19:42:28;;;;;;;;;;;14.10;99.90;;;12.22;86.40;100509.41;10541161;28;19929;-86
2022/10/08 19:47:30;;;;;;;;;;;14.10;99.90;;;12.23;87.03;100508.41;10546305;28;20410;-87
2022/10/08 19:52:33;;;;;;;;;;;14.10;99.90;;;12.25;87.21;100511.75;10509707;28;19928;-87
2022/10/08 19:57:36;;;;;;;;;;;14.20;99.90;;;12.28;87.57;100516.72;10533647;28;19935;-87
2022/10/08 20:02:39;;;;;;;;;;;14.20;99.90;;;12.31;87.77;100513.75;10541848;28;19932;-87
2022/10/08 20:07:59;;;;;;;;;;;14.20;99.90;;;12.38;88.00;100509.38;10543520;28;19928;-87
2022/10/08 20:13:01;;;;;;;;;;;14.20;99.90;;;12.44;88.00;100514.03;10548255;28;19982;-87
2022/10/08 20:18:09;;;;;;;;;;;14.30;99.90;;;12.44;87.89;100513.19;10525119;28;19928;-87
2022/10/08 20:23:12;;;;;;;;;;;14.30;99.90;;;12.42;87.90;100524.03;10526231;28;19928;-87
2022/10/08 20:28:14;;;;;;;;;;;14.30;99.90;;;12.38;87.91;100533.38;10526340;28;19929;-87
2022/10/08 20:33:18;;;;;;;;;;;14.30;99.90;;;12.32;87.91;100542.03;10536660;28;19929;-87
2022/10/08 20:38:20;;;;;;;;;;;14.20;99.90;;;12.26;88.21;100535.56;10541125;28;19933;-87
2022/10/08 20:43:27;;;;;;;;;;;14.20;99.90;;;12.22;88.38;100525.41;10527518;28;19935;-87
2022/10/08 20:48:31;;;;;;;;;;;14.10;99.90;;;12.19;88.67;100523.94;10524865;28;20070;-87
2022/10/08 20:53:34;;;;;;;;;;;14.10;99.90;;;12.15;88.70;100525.25;10524402;28;20403;-86
2022/10/08 20:58:37;;;;;;;;;;;14.00;99.90;;;12.09;88.99;100527.78;10524969;28;20387;-86
2022/10/08 21:03:43;;;;;;;;;;;14.00;99.90;;;12.04;89.33;100534.44;10542641;28;20296;-87
2022/10/08 21:08:47;;;;;;;;;;;14.00;99.90;;;11.99;89.40;100528.78;10524293;28;19967;-87
2022/10/08 21:13:50;;;;;;;;;;;13.90;99.90;;;11.95;89.64;100529.31;10522691;28;20026;-86
2022/10/08 21:18:56;;;;;;;;;;;13.90;99.90;;;11.86;89.61;100520.47;10532121;28;19928;-86
2022/10/08 21:23:59;;;;;;;;;;;13.80;99.90;;;11.79;90.03;100530.09;10515970;28;19928;-87
2022/10/08 21:29:07;;;;;;;;;;;13.70;99.90;;;11.72;90.03;100527.28;10502359;28;19928;-86
2022/10/08 21:34:11;;;;;;;;;;;13.60;99.90;;;11.69;90.60;100526.78;10518050;28;20019;-87
2022/10/08 21:39:16;;;;;;;;;;;13.60;99.90;;;11.64;90.75;100529.13;10522667;28;20015;-87
2022/10/08 21:44:18;;;;;;;;;;;13.50;99.90;;;11.60;90.85;100525.13;10524326;28;20387;-87
2022/10/08 21:49:22;;;;;;;;;;;13.50;99.90;;;11.59;91.17;100512.81;10520538;28;19936;-87
2022/10/08 21:54:25;;;;;;;;;;;13.50;99.90;;;11.60;91.10;100519.81;10507209;28;19928;-87
2022/10/08 21:59:28;;;;;;;;;;;13.50;99.90;;;11.57;91.23;100525.44;10510624;28;20074;-86
2022/10/08 22:04:31;;;;;;;;;;;13.50;99.90;;;11.47;91.37;100533.63;10521441;28;19929;-87
2022/10/08 22:09:34;;;;;;;;;;;13.40;99.90;;;11.42;91.64;100534.09;10526320;28;19928;-87
2022/10/08 22:14:37;;;;;;;;;;;13.30;99.90;;;11.39;92.00;100530.94;10521478;28;19928;-87
2022/10/08 22:19:40;;;;;;;;;;;13.20;99.90;;;11.39;92.28;100539.75;10522929;28;21209;-86
2022/10/08 22:24:43;;;;;;;;;;;13.20;99.90;;;11.38;92.32;100537.25;10522898;28;19994;-87
2022/10/08 22:29:46;;;;;;;;;;;13.20;99.90;;;11.34;92.46;100541.25;10534058;28;19928;-87
2022/10/08 22:34:49;;;;;;;;;;;13.20;99.90;;;11.29;92.45;100544.41;10510897;28;20346;-87
2022/10/08 22:39:52;;;;;;;;;;;13.20;99.90;;;11.23;92.45;100555.69;10513245;28;20299;-86
2022/10/08 22:45:10;;;;;;;;;;;13.10;99.90;;;11.16;92.37;100552.88;10522960;28;19935;-86
2022/10/08 22:50:16;;;;;;;;;;;13.10;99.90;;;11.11;92.66;100551.69;10523826;28;19929;-86
2022/10/08 22:55:30;;;;;;;;;;;13.00;99.90;;;11.07;92.76;100560.97;10522916;28;20326;-86
2022/10/08 23:00:33;;;;;;;;;;;12.90;99.90;;;10.97;92.93;100561.97;10524411;28;19932;-86